sensor_id;sensor_type;location;lat;lon;timestamp;pressure;altitude;pressure_sealevel;temperature;humidity
29909;BME280;36247;51.952;6.146;2024-03-08T00:00:13;101879.44;;;1.86;100.00
29909;BME280;36247;51.952;6.146;2024-03-08T00:02:39;101872.63;;;1.88;100.00
29909;BME280;36247;51.952;6.146;2024-03-08T00:05:06;101871.09;;;1.92;100.00
29909;BME280;36247;51.952;6.146;2024-03-08T00:07:32;101871.28;;;1.82;100.00
29909;BME280;36247;51.952;6.146;2024-03-08T00:09:58;101870.09;;;1.76;100.00
29909;BME280;36247;51.952;6.146;2024-03-08T00:12:24;101865.66;;;1.75;100.00
29909;BME280;36247;51.952;6.146;2024-03-08T00:14:51;101871.00;;;1.77;100.00
29909;BME280;36247;51.952;6.146;2024-03-08T00:17:16;101861.13;;;1.73;100.00
29909;BME280;36247;51.952;6.146;2024-03-08T00:19:41;101869.69;;;1.70;100.00
29909;BME280;36247;51.952;6.146;2024-03-08T00:22:07;101867.19;;;1.72;100.00
29909;BME280;36247;51.952;6.146;2024-03-08T00:24:33;101863.53;;;1.70;100.00
29909;BME280;36247;51.952;6.146;2024-03-08T00:26:58;101865.25;;;1.69;100.00
29909;BME280;36247;51.952;6.146;2024-03-08T00:29:24;101862.75;;;1.57;100.00
29909;BME280;36247;51.952;6.146;2024-03-08T00:31:49;101859.91;;;1.54;100.00
29909;BME280;36247;51.952;6.146;2024-03-08T00:34:15;101860.50;;;1.50;100.00
29909;BME280;36247;51.952;6.146;2024-03-08T00:36:41;101855.47;;;1.40;100.00
29909;BME280;36247;51.952;6.146;2024-03-08T00:39:06;101859.03;;;1.54;100.00
29909;BME280;36247;51.952;6.146;2024-03-08T00:41:32;101851.28;;;1.55;100.00
29909;BME280;36247;51.952;6.146;2024-03-08T00:43:58;101856.50;;;1.42;100.00
29909;BME280;36247;51.952;6.146;2024-03-08T00:46:23;101854.97;;;1.32;100.00
29909;BME280;36247;51.952;6.146;2024-03-08T00:48:49;101855.28;;;1.37;100.00
29909;BME280;36247;51.952;6.146;2024-03-08T00:51:14;101848.22;;;1.22;100.00
29909;BME280;36247;51.952;6.146;2024-03-08T00:53:41;101838.31;;;1.30;100.00
29909;BME280;36247;51.952;6.146;2024-03-08T00:56:08;101837.16;;;1.27;100.00
29909;BME280;36247;51.952;6.146;2024-03-08T00:58:36;101831.94;;;1.27;100.00
29909;BME280;36247;51.952;6.146;2024-03-08T01:01:02;101832.06;;;1.28;100.00
29909;BME280;36247;51.952;6.146;2024-03-08T01:03:27;101820.00;;;1.17;100.00
29909;BME280;36247;51.952;6.146;2024-03-08T01:05:53;101820.91;;;1.31;100.00
29909;BME280;36247;51.952;6.146;2024-03-08T01:08:19;101819.06;;;1.16;100.00
29909;BME280;36247;51.952;6.146;2024-03-08T01:10:44;101810.16;;;1.13;100.00
29909;BME280;36247;51.952;6.146;2024-03-08T01:13:10;101803.38;;;1.03;100.00
29909;BME280;36247;51.952;6.146;2024-03-08T01:15:35;101809.66;;;1.18;100.00
29909;BME280;36247;51.952;6.146;2024-03-08T01:18:01;101807.53;;;1.13;100.00
29909;BME280;36247;51.952;6.146;2024-03-08T01:20:26;101807.59;;;1.01;100.00
29909;BME280;36247;51.952;6.146;2024-03-08T01:22:52;101804.63;;;1.08;100.00
29909;BME280;36247;51.952;6.146;2024-03-08T01:25:18;101801.72;;;1.17;100.00
29909;BME280;36247;51.952;6.146;2024-03-08T01:27:43;101789.53;;;1.04;100.00
29909;BME280;36247;51.952;6.146;2024-03-08T01:30:09;101795.78;;;1.06;100.00
29909;BME280;36247;51.952;6.146;2024-03-08T01:32:35;101786.25;;;1.07;100.00
29909;BME280;36247;51.952;6.146;2024-03-08T01:35:01;101781.50;;;1.01;100.00
29909;BME280;36247;51.952;6.146;2024-03-08T01:37:26;101774.09;;;1.07;100.00
29909;BME280;36247;51.952;6.146;2024-03-08T01:39:51;101772.78;;;1.00;100.00
29909;BME280;36247;51.952;6.146;2024-03-08T01:42:17;101776.94;;;0.85;100.00
29909;BME280;36247;51.952;6.146;2024-03-08T01:44:43;101783.78;;;0.83;100.00
29909;BME280;36247;51.952;6.146;2024-03-08T01:47:10;101775.78;;;0.93;100.00
29909;BME280;36247;51.952;6.146;2024-03-08T01:49:36;101773.47;;;0.98;100.00
29909;BME280;36247;51.952;6.146;2024-03-08T01:52:02;101779.19;;;0.92;100.00
29909;BME280;36247;51.952;6.146;2024-03-08T01:54:28;101776.19;;;0.99;100.00
29909;BME280;36247;51.952;6.146;2024-03-08T01:56:56;101751.63;;;1.09;100.00
29909;BME280;36247;51.952;6.146;2024-03-08T01:59:24;101762.22;;;0.85;100.00
29909;BME280;36247;51.952;6.146;2024-03-08T02:01:50;101763.44;;;0.91;100.00
29909;BME280;36247;51.952;6.146;2024-03-08T02:04:16;101763.81;;;0.83;100.00
29909;BME280;36247;51.952;6.146;2024-03-08T02:06:42;101754.41;;;0.85;100.00
29909;BME280;36247;51.952;6.146;2024-03-08T02:09:07;101756.19;;;0.86;100.00
29909;BME280;36247;51.952;6.146;2024-03-08T02:11:35;101754.97;;;0.81;100.00
29909;BME280;36247;51.952;6.146;2024-03-08T02:14:01;101757.41;;;0.92;100.00
29909;BME280;36247;51.952;6.146;2024-03-08T02:16:27;101758.00;;;0.87;100.00
29909;BME280;36247;51.952;6.146;2024-03-08T02:18:53;101757.59;;;0.81;100.00
29909;BME280;36247;51.952;6.146;2024-03-08T02:21:18;101753.44;;;0.72;100.00
29909;BME280;36247;51.952;6.146;2024-03-08T02:23:44;101748.75;;;0.79;100.00
29909;BME280;36247;51.952;6.146;2024-03-08T02:26:10;101744.53;;;0.81;100.00
29909;BME280;36247;51.952;6.146;2024-03-08T02:28:36;101742.03;;;0.83;100.00
29909;BME280;36247;51.952;6.146;2024-03-08T02:31:01;101739.88;;;0.64;100.00
29909;BME280;36247;51.952;6.146;2024-03-08T02:33:28;101738.09;;;0.63;100.00
29909;BME280;36247;51.952;6.146;2024-03-08T02:35:54;101733.25;;;0.56;100.00
29909;BME280;36247;51.952;6.146;2024-03-08T02:38:22;101731.31;;;0.53;100.00
29909;BME280;36247;51.952;6.146;2024-03-08T02:40:50;101729.81;;;0.57;100.00
29909;BME280;36247;51.952;6.146;2024-03-08T02:43:17;101725.63;;;0.59;100.00
29909;BME280;36247;51.952;6.146;2024-03-08T02:45:43;101728.56;;;0.63;100.00
29909;BME280;36247;51.952;6.146;2024-03-08T02:48:09;101726.03;;;0.65;100.00
29909;BME280;36247;51.952;6.146;2024-03-08T02:50:35;101725.47;;;0.69;100.00
29909;BME280;36247;51.952;6.146;2024-03-08T02:53:01;101719.00;;;0.64;100.00
29909;BME280;36247;51.952;6.146;2024-03-08T02:55:27;101721.94;;;0.68;100.00
29909;BME280;36247;51.952;6.146;2024-03-08T02:57:52;101715.81;;;0.68;100.00
29909;BME280;36247;51.952;6.146;2024-03-08T03:00:20;101706.00;;;0.39;100.00
29909;BME280;36247;51.952;6.146;2024-03-08T03:02:49;101709.03;;;0.45;100.00
29909;BME280;36247;51.952;6.146;2024-03-08T03:05:19;101706.88;;;0.51;100.00
29909;BME280;36247;51.952;6.146;2024-03-08T03:07:45;101700.31;;;0.44;100.00
29909;BME280;36247;51.952;6.146;2024-03-08T03:10:10;101705.63;;;0.46;100.00
29909;BME280;36247;51.952;6.146;2024-03-08T03:12:37;101703.28;;;0.37;100.00
29909;BME280;36247;51.952;6.146;2024-03-08T03:15:04;101695.47;;;0.37;100.00
29909;BME280;36247;51.952;6.146;2024-03-08T03:17:29;101697.06;;;0.35;100.00
29909;BME280;36247;51.952;6.146;2024-03-08T03:19:55;101692.44;;;0.31;100.00
29909;BME280;36247;51.952;6.146;2024-03-08T03:22:21;101692.06;;;0.38;100.00
29909;BME280;36247;51.952;6.146;2024-03-08T03:24:46;101693.72;;;0.49;100.00
29909;BME280;36247;51.952;6.146;2024-03-08T03:27:13;101689.47;;;0.77;100.00
29909;BME280;36247;51.952;6.146;2024-03-08T03:29:40;101691.38;;;0.79;100.00
29909;BME280;36247;51.952;6.146;2024-03-08T03:32:08;101684.66;;;0.83;100.00
29909;BME280;36247;51.952;6.146;2024-03-08T03:34:34;101691.41;;;0.93;100.00
29909;BME280;36247;51.952;6.146;2024-03-08T03:37:02;101680.13;;;0.94;100.00
29909;BME280;36247;51.952;6.146;2024-03-08T03:39:28;101681.06;;;0.94;100.00
29909;BME280;36247;51.952;6.146;2024-03-08T03:41:57;101676.25;;;1.00;100.00
29909;BME280;36247;51.952;6.146;2024-03-08T03:44:23;101685.38;;;1.07;100.00
29909;BME280;36247;51.952;6.146;2024-03-08T03:46:49;101669.00;;;0.96;100.00
29909;BME280;36247;51.952;6.146;2024-03-08T03:49:16;101673.34;;;1.09;100.00
29909;BME280;36247;51.952;6.146;2024-03-08T03:51:42;101669.00;;;1.10;100.00
29909;BME280;36247;51.952;6.146;2024-03-08T03:54:07;101676.66;;;1.07;100.00
29909;BME280;36247;51.952;6.146;2024-03-08T03:56:33;101664.28;;;1.04;100.00
29909;BME280;36247;51.952;6.146;2024-03-08T03:58:58;101664.50;;;1.07;100.00
29909;BME280;36247;51.952;6.146;2024-03-08T04:01:23;101666.41;;;1.10;100.00
29909;BME280;36247;51.952;6.146;2024-03-08T04:03:49;101662.16;;;1.12;100.00
29909;BME280;36247;51.952;6.146;2024-03-08T04:06:14;101660.59;;;1.14;100.00
29909;BME280;36247;51.952;6.146;2024-03-08T04:08:40;101658.56;;;1.10;100.00
29909;BME280;36247;51.952;6.146;2024-03-08T04:11:07;101655.66;;;1.05;100.00
29909;BME280;36247;51.952;6.146;2024-03-08T04:13:34;101664.38;;;1.05;100.00
29909;BME280;36247;51.952;6.146;2024-03-08T04:15:59;101656.47;;;1.04;100.00
29909;BME280;36247;51.952;6.146;2024-03-08T04:18:25;101650.44;;;0.92;100.00
29909;BME280;36247;51.952;6.146;2024-03-08T04:20:51;101648.72;;;1.05;100.00
29909;BME280;36247;51.952;6.146;2024-03-08T04:23:16;101653.16;;;0.93;100.00
29909;BME280;36247;51.952;6.146;2024-03-08T04:25:43;101651.44;;;0.94;100.00
29909;BME280;36247;51.952;6.146;2024-03-08T04:28:09;101643.13;;;0.86;100.00
29909;BME280;36247;51.952;6.146;2024-03-08T04:30:40;101641.81;;;0.93;100.00
29909;BME280;36247;51.952;6.146;2024-03-08T04:33:05;101642.41;;;0.88;100.00
29909;BME280;36247;51.952;6.146;2024-03-08T04:35:32;101638.19;;;0.91;100.00
29909;BME280;36247;51.952;6.146;2024-03-08T04:37:57;101640.59;;;0.87;100.00
29909;BME280;36247;51.952;6.146;2024-03-08T04:40:23;101639.50;;;0.97;100.00
29909;BME280;36247;51.952;6.146;2024-03-08T04:42:49;101641.09;;;0.95;100.00
29909;BME280;36247;51.952;6.146;2024-03-08T04:45:16;101638.28;;;0.92;100.00
29909;BME280;36247;51.952;6.146;2024-03-08T04:47:42;101635.59;;;0.91;100.00
29909;BME280;36247;51.952;6.146;2024-03-08T04:50:08;101634.41;;;0.99;100.00
29909;BME280;36247;51.952;6.146;2024-03-08T04:52:34;101634.41;;;0.99;100.00
29909;BME280;36247;51.952;6.146;2024-03-08T04:55:00;101627.94;;;0.94;100.00
29909;BME280;36247;51.952;6.146;2024-03-08T04:57:27;101623.97;;;0.99;100.00
29909;BME280;36247;51.952;6.146;2024-03-08T04:59:53;101630.47;;;0.92;100.00
29909;BME280;36247;51.952;6.146;2024-03-08T05:02:18;101624.56;;;0.81;100.00
29909;BME280;36247;51.952;6.146;2024-03-08T05:04:43;101625.03;;;0.89;100.00
29909;BME280;36247;51.952;6.146;2024-03-08T05:07:09;101617.72;;;0.83;100.00
29909;BME280;36247;51.952;6.146;2024-03-08T05:09:35;101624.34;;;0.78;100.00
29909;BME280;36247;51.952;6.146;2024-03-08T05:12:01;101615.09;;;0.83;100.00
29909;BME280;36247;51.952;6.146;2024-03-08T05:14:26;101612.09;;;0.77;100.00
29909;BME280;36247;51.952;6.146;2024-03-08T05:16:52;101620.94;;;0.66;100.00
29909;BME280;36247;51.952;6.146;2024-03-08T05:19:18;101609.88;;;0.70;100.00
29909;BME280;36247;51.952;6.146;2024-03-08T05:21:45;101608.59;;;0.77;100.00
29909;BME280;36247;51.952;6.146;2024-03-08T05:24:11;101602.50;;;0.63;100.00
29909;BME280;36247;51.952;6.146;2024-03-08T05:26:36;101607.38;;;0.72;100.00
29909;BME280;36247;51.952;6.146;2024-03-08T05:29:03;101608.91;;;0.68;100.00
29909;BME280;36247;51.952;6.146;2024-03-08T05:31:28;101613.91;;;0.78;100.00
29909;BME280;36247;51.952;6.146;2024-03-08T05:33:54;101612.41;;;0.68;100.00
29909;BME280;36247;51.952;6.146;2024-03-08T05:36:21;101603.69;;;0.68;100.00
29909;BME280;36247;51.952;6.146;2024-03-08T05:38:46;101606.59;;;0.73;100.00
29909;BME280;36247;51.952;6.146;2024-03-08T05:41:12;101599.88;;;0.63;100.00
29909;BME280;36247;51.952;6.146;2024-03-08T05:43:38;101601.16;;;0.69;100.00
29909;BME280;36247;51.952;6.146;2024-03-08T05:46:04;101600.47;;;0.59;100.00
29909;BME280;36247;51.952;6.146;2024-03-08T05:48:32;101596.34;;;0.62;100.00
29909;BME280;36247;51.952;6.146;2024-03-08T05:50:59;101599.44;;;0.57;100.00
29909;BME280;36247;51.952;6.146;2024-03-08T05:53:25;101593.81;;;0.50;100.00
29909;BME280;36247;51.952;6.146;2024-03-08T05:55:50;101599.66;;;0.46;100.00
29909;BME280;36247;51.952;6.146;2024-03-08T05:58:15;101593.59;;;0.34;100.00
29909;BME280;36247;51.952;6.146;2024-03-08T06:00:41;101593.81;;;0.37;100.00
29909;BME280;36247;51.952;6.146;2024-03-08T06:03:06;101594.00;;;0.40;100.00
29909;BME280;36247;51.952;6.146;2024-03-08T06:05:32;101593.00;;;0.38;100.00
29909;BME280;36247;51.952;6.146;2024-03-08T06:07:58;101583.19;;;0.34;100.00
29909;BME280;36247;51.952;6.146;2024-03-08T06:10:24;101589.00;;;0.43;100.00
29909;BME280;36247;51.952;6.146;2024-03-08T06:12:49;101585.78;;;0.34;100.00
29909;BME280;36247;51.952;6.146;2024-03-08T06:15:15;101584.50;;;0.41;100.00
29909;BME280;36247;51.952;6.146;2024-03-08T06:17:41;101580.88;;;0.39;100.00
29909;BME280;36247;51.952;6.146;2024-03-08T06:20:07;101588.41;;;0.47;100.00
29909;BME280;36247;51.952;6.146;2024-03-08T06:22:41;101576.78;;;0.42;100.00
29909;BME280;36247;51.952;6.146;2024-03-08T06:25:16;101577.00;;;0.45;100.00
29909;BME280;36247;51.952;6.146;2024-03-08T06:27:41;101578.47;;;0.55;100.00
29909;BME280;36247;51.952;6.146;2024-03-08T06:30:12;101575.88;;;0.55;100.00
29909;BME280;36247;51.952;6.146;2024-03-08T06:32:37;101571.69;;;0.57;100.00
29909;BME280;36247;51.952;6.146;2024-03-08T06:35:04;101574.97;;;0.55;100.00
29909;BME280;36247;51.952;6.146;2024-03-08T06:37:33;101578.19;;;0.64;100.00
29909;BME280;36247;51.952;6.146;2024-03-08T06:39:59;101572.09;;;0.63;100.00
29909;BME280;36247;51.952;6.146;2024-03-08T06:42:26;101570.66;;;0.68;100.00
29909;BME280;36247;51.952;6.146;2024-03-08T06:44:52;101572.88;;;0.76;100.00
29909;BME280;36247;51.952;6.146;2024-03-08T06:47:20;101567.47;;;0.86;100.00
29909;BME280;36247;51.952;6.146;2024-03-08T06:49:46;101567.84;;;0.92;100.00
29909;BME280;36247;51.952;6.146;2024-03-08T06:52:11;101563.75;;;0.96;100.00
29909;BME280;36247;51.952;6.146;2024-03-08T06:54:37;101573.16;;;0.94;100.00
29909;BME280;36247;51.952;6.146;2024-03-08T06:57:05;101567.22;;;1.10;100.00
29909;BME280;36247;51.952;6.146;2024-03-08T06:59:32;101570.22;;;1.16;100.00
29909;BME280;36247;51.952;6.146;2024-03-08T07:01:57;101572.94;;;1.17;100.00
29909;BME280;36247;51.952;6.146;2024-03-08T07:04:25;101563.44;;;1.33;100.00
29909;BME280;36247;51.952;6.146;2024-03-08T07:06:54;101571.78;;;1.40;100.00
29909;BME280;36247;51.952;6.146;2024-03-08T07:09:19;101566.47;;;1.39;100.00
29909;BME280;36247;51.952;6.146;2024-03-08T07:11:45;101564.25;;;1.45;100.00
29909;BME280;36247;51.952;6.146;2024-03-08T07:14:12;101562.81;;;1.50;100.00
29909;BME280;36247;51.952;6.146;2024-03-08T07:16:37;101562.66;;;1.62;100.00
29909;BME280;36247;51.952;6.146;2024-03-08T07:19:04;101567.31;;;1.81;100.00
29909;BME280;36247;51.952;6.146;2024-03-08T07:21:30;101562.53;;;1.89;100.00
29909;BME280;36247;51.952;6.146;2024-03-08T07:23:56;101560.81;;;1.89;100.00
29909;BME280;36247;51.952;6.146;2024-03-08T07:26:25;101558.69;;;1.97;100.00
29909;BME280;36247;51.952;6.146;2024-03-08T07:28:50;101562.22;;;2.13;100.00
29909;BME280;36247;51.952;6.146;2024-03-08T07:31:16;101553.50;;;2.12;100.00
29909;BME280;36247;51.952;6.146;2024-03-08T07:33:56;101538.59;;;2.26;100.00
29909;BME280;36247;51.952;6.146;2024-03-08T07:36:24;101535.34;;;2.45;100.00
29909;BME280;36247;51.952;6.146;2024-03-08T07:38:49;101536.44;;;2.49;100.00
29909;BME280;36247;51.952;6.146;2024-03-08T07:41:15;101539.81;;;2.62;100.00
29909;BME280;36247;51.952;6.146;2024-03-08T07:43:41;101535.53;;;2.94;100.00
29909;BME280;36247;51.952;6.146;2024-03-08T07:46:06;101533.41;;;3.04;100.00
29909;BME280;36247;51.952;6.146;2024-03-08T07:48:35;101532.44;;;3.02;100.00
29909;BME280;36247;51.952;6.146;2024-03-08T07:51:02;101525.47;;;3.02;100.00
29909;BME280;36247;51.952;6.146;2024-03-08T07:53:28;101533.03;;;3.12;100.00
29909;BME280;36247;51.952;6.146;2024-03-08T07:55:53;101523.78;;;3.19;100.00
29909;BME280;36247;51.952;6.146;2024-03-08T07:58:19;101528.63;;;3.44;100.00
29909;BME280;36247;51.952;6.146;2024-03-08T08:00:44;101519.56;;;3.54;100.00
29909;BME280;36247;51.952;6.146;2024-03-08T08:03:10;101519.28;;;3.82;100.00
29909;BME280;36247;51.952;6.146;2024-03-08T08:05:35;101511.69;;;3.70;100.00
29909;BME280;36247;51.952;6.146;2024-03-08T08:08:02;101504.63;;;3.86;100.00
29909;BME280;36247;51.952;6.146;2024-03-08T08:10:31;101514.22;;;3.85;100.00
29909;BME280;36247;51.952;6.146;2024-03-08T08:12:58;101518.44;;;3.83;100.00
29909;BME280;36247;51.952;6.146;2024-03-08T08:15:23;101503.78;;;4.03;100.00
29909;BME280;36247;51.952;6.146;2024-03-08T08:17:49;101499.84;;;3.95;100.00
29909;BME280;36247;51.952;6.146;2024-03-08T08:20:14;101499.59;;;4.25;100.00
29909;BME280;36247;51.952;6.146;2024-03-08T08:22:40;101488.38;;;4.46;100.00
29909;BME280;36247;51.952;6.146;2024-03-08T08:25:07;101483.34;;;4.68;100.00
29909;BME280;36247;51.952;6.146;2024-03-08T08:27:33;101478.75;;;4.64;100.00
29909;BME280;36247;51.952;6.146;2024-03-08T08:29:58;101477.13;;;4.66;100.00
29909;BME280;36247;51.952;6.146;2024-03-08T08:32:24;101476.75;;;4.76;100.00
29909;BME280;36247;51.952;6.146;2024-03-08T08:34:50;101470.25;;;4.88;100.00
29909;BME280;36247;51.952;6.146;2024-03-08T08:37:15;101473.72;;;4.87;100.00
29909;BME280;36247;51.952;6.146;2024-03-08T08:39:42;101469.84;;;4.98;100.00
29909;BME280;36247;51.952;6.146;2024-03-08T08:42:07;101464.50;;;5.34;100.00
29909;BME280;36247;51.952;6.146;2024-03-08T08:44:35;101461.59;;;5.28;100.00
29909;BME280;36247;51.952;6.146;2024-03-08T08:47:01;101462.59;;;5.30;100.00
29909;BME280;36247;51.952;6.146;2024-03-08T08:49:26;101461.78;;;5.52;100.00
29909;BME280;36247;51.952;6.146;2024-03-08T08:51:52;101453.19;;;5.76;100.00
29909;BME280;36247;51.952;6.146;2024-03-08T08:54:18;101458.94;;;5.67;100.00
29909;BME280;36247;51.952;6.146;2024-03-08T08:56:44;101454.91;;;5.75;100.00
29909;BME280;36247;51.952;6.146;2024-03-08T08:59:10;101457.16;;;5.66;100.00
29909;BME280;36247;51.952;6.146;2024-03-08T09:01:39;101446.78;;;5.90;100.00
29909;BME280;36247;51.952;6.146;2024-03-08T09:04:05;101439.41;;;5.81;100.00
29909;BME280;36247;51.952;6.146;2024-03-08T09:06:30;101443.19;;;6.08;100.00
29909;BME280;36247;51.952;6.146;2024-03-08T09:08:56;101442.00;;;6.01;100.00
29909;BME280;36247;51.952;6.146;2024-03-08T09:11:21;101432.53;;;6.26;100.00
29909;BME280;36247;51.952;6.146;2024-03-08T09:13:47;101426.09;;;5.98;100.00
29909;BME280;36247;51.952;6.146;2024-03-08T09:16:12;101423.06;;;6.31;100.00
29909;BME280;36247;51.952;6.146;2024-03-08T09:18:38;101420.72;;;6.16;100.00
29909;BME280;36247;51.952;6.146;2024-03-08T09:21:03;101415.81;;;6.69;100.00
29909;BME280;36247;51.952;6.146;2024-03-08T09:23:30;101412.06;;;6.41;100.00
29909;BME280;36247;51.952;6.146;2024-03-08T09:25:56;101407.16;;;6.28;100.00
29909;BME280;36247;51.952;6.146;2024-03-08T09:28:24;101398.56;;;6.32;100.00
29909;BME280;36247;51.952;6.146;2024-03-08T09:30:50;101402.19;;;6.35;100.00
29909;BME280;36247;51.952;6.146;2024-03-08T09:33:16;101394.94;;;6.30;100.00
29909;BME280;36247;51.952;6.146;2024-03-08T09:35:45;101401.78;;;6.47;100.00
29909;BME280;36247;51.952;6.146;2024-03-08T09:38:12;101387.44;;;6.62;100.00
29909;BME280;36247;51.952;6.146;2024-03-08T09:40:41;101381.31;;;6.40;100.00
29909;BME280;36247;51.952;6.146;2024-03-08T09:43:06;101375.03;;;6.82;100.00
29909;BME280;36247;51.952;6.146;2024-03-08T09:45:35;101376.63;;;7.01;100.00
29909;BME280;36247;51.952;6.146;2024-03-08T09:48:01;101370.91;;;6.88;100.00
29909;BME280;36247;51.952;6.146;2024-03-08T09:50:27;101370.22;;;7.18;100.00
29909;BME280;36247;51.952;6.146;2024-03-08T09:52:55;101368.69;;;7.25;100.00
29909;BME280;36247;51.952;6.146;2024-03-08T09:55:22;101360.13;;;7.31;100.00
29909;BME280;36247;51.952;6.146;2024-03-08T09:57:48;101354.59;;;7.23;100.00
29909;BME280;36247;51.952;6.146;2024-03-08T10:00:34;101350.81;;;7.40;100.00
29909;BME280;36247;51.952;6.146;2024-03-08T10:03:02;101338.31;;;7.61;100.00
29909;BME280;36247;51.952;6.146;2024-03-08T10:05:28;101339.78;;;8.05;100.00
29909;BME280;36247;51.952;6.146;2024-03-08T10:07:55;101331.06;;;8.08;100.00
29909;BME280;36247;51.952;6.146;2024-03-08T10:10:20;101330.31;;;8.41;100.00
29909;BME280;36247;51.952;6.146;2024-03-08T10:12:48;101325.13;;;8.73;100.00
29909;BME280;36247;51.952;6.146;2024-03-08T10:15:15;101311.03;;;9.36;100.00
29909;BME280;36247;51.952;6.146;2024-03-08T10:17:41;101311.47;;;9.89;100.00
29909;BME280;36247;51.952;6.146;2024-03-08T10:20:14;101301.34;;;10.48;100.00
29909;BME280;36247;51.952;6.146;2024-03-08T10:22:41;101304.34;;;10.63;100.00
29909;BME280;36247;51.952;6.146;2024-03-08T10:25:10;101301.19;;;11.28;100.00
29909;BME280;36247;51.952;6.146;2024-03-08T10:27:36;101296.53;;;11.65;87.53
29909;BME280;36247;51.952;6.146;2024-03-08T10:30:02;101297.38;;;10.68;86.45
29909;BME280;36247;51.952;6.146;2024-03-08T10:32:28;101295.88;;;10.81;87.29
29909;BME280;36247;51.952;6.146;2024-03-08T10:34:53;101290.13;;;11.04;88.91
29909;BME280;36247;51.952;6.146;2024-03-08T10:37:21;101292.09;;;11.63;82.84
29909;BME280;36247;51.952;6.146;2024-03-08T10:40:03;101280.72;;;11.73;85.78
29909;BME280;36247;51.952;6.146;2024-03-08T10:42:55;101280.47;;;12.13;81.53
29909;BME280;36247;51.952;6.146;2024-03-08T10:45:38;101278.38;;;11.92;77.83
29909;BME280;36247;51.952;6.146;2024-03-08T10:48:28;101269.63;;;11.96;79.31
29909;BME280;36247;51.952;6.146;2024-03-08T10:51:02;101274.63;;;12.37;79.48
29909;BME280;36247;51.952;6.146;2024-03-08T10:53:28;101260.00;;;12.73;73.42
29909;BME280;36247;51.952;6.146;2024-03-08T10:55:57;101255.81;;;12.94;71.83
29909;BME280;36247;51.952;6.146;2024-03-08T10:58:24;101252.53;;;12.41;69.52
29909;BME280;36247;51.952;6.146;2024-03-08T11:00:57;101241.88;;;13.21;74.22
29909;BME280;36247;51.952;6.146;2024-03-08T11:06:08;101246.81;;;12.81;69.55
29909;BME280;36247;51.952;6.146;2024-03-08T11:08:37;101235.34;;;12.88;69.51
29909;BME280;36247;51.952;6.146;2024-03-08T11:11:04;101225.19;;;13.36;67.91
29909;BME280;36247;51.952;6.146;2024-03-08T11:16:12;101219.69;;;13.17;67.57
29909;BME280;36247;51.952;6.146;2024-03-08T11:18:38;101214.41;;;13.20;67.51
29909;BME280;36247;51.952;6.146;2024-03-08T11:21:08;101208.53;;;13.58;67.59
29909;BME280;36247;51.952;6.146;2024-03-08T11:23:38;101195.78;;;13.20;67.50
29909;BME280;36247;51.952;6.146;2024-03-08T11:26:20;101205.25;;;12.91;67.17
29909;BME280;36247;51.952;6.146;2024-03-08T11:28:45;101205.91;;;12.69;65.02
29909;BME280;36247;51.952;6.146;2024-03-08T11:33:39;101188.22;;;13.76;62.63
29909;BME280;36247;51.952;6.146;2024-03-08T11:36:20;101176.03;;;14.17;64.01
29909;BME280;36247;51.952;6.146;2024-03-08T11:38:47;101180.47;;;14.19;61.88
29909;BME280;36247;51.952;6.146;2024-03-08T11:41:22;101170.00;;;14.73;57.96
29909;BME280;36247;51.952;6.146;2024-03-08T11:43:49;101168.97;;;14.33;60.98
29909;BME280;36247;51.952;6.146;2024-03-08T11:46:16;101166.16;;;13.97;59.27
29909;BME280;36247;51.952;6.146;2024-03-08T11:48:44;101165.47;;;14.54;58.25
29909;BME280;36247;51.952;6.146;2024-03-08T11:51:14;101174.91;;;13.73;60.61
29909;BME280;36247;51.952;6.146;2024-03-08T11:53:41;101160.38;;;13.28;57.47
29909;BME280;36247;51.952;6.146;2024-03-08T11:56:10;101155.44;;;13.83;59.75
29909;BME280;36247;51.952;6.146;2024-03-08T11:58:37;101142.41;;;14.60;59.74
29909;BME280;36247;51.952;6.146;2024-03-08T12:01:10;101148.16;;;13.53;57.60
29909;BME280;36247;51.952;6.146;2024-03-08T12:03:39;101136.59;;;13.52;57.70
29909;BME280;36247;51.952;6.146;2024-03-08T12:06:05;101140.22;;;13.64;60.41
29909;BME280;36247;51.952;6.146;2024-03-08T12:08:31;101138.38;;;13.50;58.21
29909;BME280;36247;51.952;6.146;2024-03-08T12:10:57;101129.38;;;13.34;57.85
29909;BME280;36247;51.952;6.146;2024-03-08T12:13:34;101136.81;;;13.88;58.22
29909;BME280;36247;51.952;6.146;2024-03-08T12:16:03;101125.41;;;14.20;57.13
29909;BME280;36247;51.952;6.146;2024-03-08T12:18:38;101124.81;;;13.22;59.25
29909;BME280;36247;51.952;6.146;2024-03-08T12:21:05;101115.66;;;14.28;61.82
29909;BME280;36247;51.952;6.146;2024-03-08T12:23:33;101116.72;;;13.04;62.78
29909;BME280;36247;51.952;6.146;2024-03-08T12:26:12;101109.91;;;13.37;61.20
29909;BME280;36247;51.952;6.146;2024-03-08T12:28:39;101117.13;;;12.53;61.67
29909;BME280;36247;51.952;6.146;2024-03-08T12:31:07;101105.50;;;12.41;63.62
29909;BME280;36247;51.952;6.146;2024-03-08T12:33:55;101102.00;;;12.46;63.28
29909;BME280;36247;51.952;6.146;2024-03-08T12:36:24;101095.72;;;12.38;64.00
29909;BME280;36247;51.952;6.146;2024-03-08T12:38:51;101084.63;;;12.81;64.99
29909;BME280;36247;51.952;6.146;2024-03-08T12:41:18;101084.34;;;12.50;65.62
29909;BME280;36247;51.952;6.146;2024-03-08T12:43:44;101087.34;;;12.88;67.67
29909;BME280;36247;51.952;6.146;2024-03-08T12:46:16;101077.63;;;12.92;69.26
29909;BME280;36247;51.952;6.146;2024-03-08T12:48:42;101087.91;;;12.55;65.17
29909;BME280;36247;51.952;6.146;2024-03-08T12:51:16;101077.84;;;12.20;66.49
29909;BME280;36247;51.952;6.146;2024-03-08T12:53:43;101078.72;;;12.21;69.24
29909;BME280;36247;51.952;6.146;2024-03-08T12:56:13;101068.56;;;11.87;68.81